This is the latest recevied weather packets stored in our database for station/object LRBV. If no packets are shown the sender has not sent any weather packets the latest 10 day(s).
| Time | Temp. | Humidity | Pressure | Rain* | Wind** | Luminosity | Snow |
|---|---|---|---|---|---|---|---|
| 1777622631 | 6.11° C | 42% | 1025 hPa | - | - | - | - |
| 1777621730 | 6.11° C | 49% | 1025 hPa | - | - | - | - |
| 1777620830 | 6.11° C | 49% | 1025 hPa | - | - | - | - |
| 1777619931 | 5° C | 61% | 1025 hPa | - | - | - | - |
| 1777619030 | 5° C | 61% | 1025 hPa | - | - | - | - |
| 1777618134 | 3.89° C | 75% | 1025 hPa | - | - | - | - |
| 1777617231 | 3.89° C | 75% | 1025 hPa | - | - | - | - |
| 1777616332 | 2.22° C | 81% | 1025 hPa | - | - | - | - |
| 1777615430 | 2.22° C | 81% | 1025 hPa | - | - | - | - |
| 1777614531 | 0° C | 93% | 1025 hPa | - | - | - | - |
| 1777613631 | 0° C | 93% | 1025 hPa | - | - | - | - |
| 1777612731 | 0° C | 87% | 1025 hPa | - | - | - | - |
| 1777611830 | 0° C | 87% | 1025 hPa | - | - | - | - |
| 1777610930 | -1.11° C | 93% | 1025 hPa | - | - | - | - |
| 1777610030 | -1.11° C | 93% | 1025 hPa | - | - | - | - |
| 1777609130 | -1.11° C | 93% | 1025 hPa | - | - | - | - |
| 1777608231 | -1.11° C | 93% | 1025 hPa | - | - | - | - |
| 1777607330 | -2.22° C | 86% | 1025 hPa | - | - | - | - |
| 1777606431 | -2.22° C | 86% | 1025 hPa | - | - | - | - |
| 1777605530 | -2.22° C | 93% | 1025 hPa | - | - | - | - |
| 1777604631 | -2.22° C | 93% | 1025 hPa | - | - | - | - |
| 1777603728 | -2.22° C | 93% | 1025 hPa | - | - | - | - |
| 1777602830 | -2.22° C | 93% | 1025 hPa | - | - | - | - |
| 1777601930 | -1.11° C | 86% | 1025 hPa | - | - | - | - |
| 1777585731 | 0° C | 93% | 1025 hPa | - | - | - | - |
* Rain since midnight (hover to see other rain measurements)
** Current wind speed in m/s (hover to see current wind gust speed)